Terminal Aerodrome Forecast
Issued by NWS

Current Version | Previous Version | Text Only | Print | Product List | Glossary On
Versions: 1 2 3 4 5 6 7 8 9 10 11 12 13
000
FTUS42 TJSJ 161140
TAFJSJ
TAF
TJSJ 161140Z 1612/1712 10007KT P6SM -SHRA FEW027 SCT050
     FM161300 08015G23KT P6SM FEW030 SCT060
     FM162200 10011KT P6SM FEW035 SCT050=

USA.gov is the U.S. government's official web portal to all federal, state and local government web resources and services.